Time;durP1;ratioP1;P1;durP2;ratioP2;P2;SDS_P1;SDS_P2;PMS_P1;PMS_P2;Temp;Humidity;BMP_temperature;BMP_pressure;BME280_temperature;BME280_humidity;BME280_pressure;Samples;Min_cycle;Max_cycle;Signal;HPM_P1;HPM_P2
2022/12/14 00:02:03;;;;;;;67.47;30.07;;;-2.40;99.90;;;;;;5033623;28;20511;-77
2022/12/14 00:04:52;;;;;;;61.03;28.37;;;-2.20;99.90;;;;;;5016659;28;20286;-77
2022/12/14 00:07:41;;;;;;;58.67;28.07;;;-2.20;99.90;;;;;;5015095;28;20221;-77
2022/12/14 00:10:30;;;;;;;59.27;27.60;;;-2.10;99.90;;;;;;5014695;28;20222;-77
2022/12/14 00:13:18;;;;;;;59.33;28.73;;;-2.10;99.90;;;;;;5029751;28;20214;-76
2022/12/14 00:16:11;;;;;;;58.67;26.83;;;-2.10;99.90;;;;;;5024516;28;20217;-76
2022/12/14 00:19:01;;;;;;;60.67;28.90;;;-2.10;99.90;;;;;;5023481;28;20230;-76
2022/12/14 00:21:50;;;;;;;56.77;29.43;;;-2.20;99.90;;;;;;5039718;28;20228;-77
2022/12/14 00:24:40;;;;;;;62.30;28.03;;;-2.20;99.90;;;;;;5034006;28;20283;-77
2022/12/14 00:27:29;;;;;;;61.53;28.50;;;-2.30;99.90;;;;;;5028609;28;20224;-78
2022/12/14 00:30:20;;;;;;;59.13;28.00;;;-2.40;99.90;;;;;;5039704;28;20704;-77
2022/12/14 00:33:10;;;;;;;64.00;28.00;;;-2.30;99.90;;;;;;5030418;28;20969;-78
2022/12/14 00:35:59;;;;;;;62.53;28.63;;;-2.10;99.90;;;;;;5023873;28;20235;-77
2022/12/14 00:38:48;;;;;;;63.30;28.17;;;-2.00;99.90;;;;;;5040898;28;20231;-78
2022/12/14 00:41:36;;;;;;;56.00;26.17;;;-2.20;99.90;;;;;;5028800;28;20236;-76
2022/12/14 00:44:25;;;;;;;61.07;28.10;;;-2.20;99.90;;;;;;5040660;28;20221;-76
2022/12/14 00:47:14;;;;;;;58.17;27.10;;;-2.30;99.90;;;;;;5037303;28;20711;-77
2022/12/14 00:50:04;;;;;;;56.73;28.00;;;-2.20;99.90;;;;;;5039147;28;20224;-78
2022/12/14 00:52:53;;;;;;;60.93;28.20;;;-2.40;99.90;;;;;;5022903;28;20231;-78
2022/12/14 00:55:43;;;;;;;59.97;27.70;;;-2.50;99.90;;;;;;5028021;28;20226;-77
2022/12/14 00:58:37;;;;;;;58.20;27.20;;;-2.50;99.90;;;;;;5035618;28;20235;-76
2022/12/14 01:01:25;;;;;;;60.23;28.17;;;-2.40;99.90;;;;;;5037705;28;20442;-77
2022/12/14 01:04:18;;;;;;;60.13;28.53;;;-2.30;99.90;;;;;;5039365;28;20766;-77
2022/12/14 01:07:08;;;;;;;65.33;28.67;;;-2.30;99.90;;;;;;5036691;28;20332;-76
2022/12/14 01:09:57;;;;;;;62.47;29.17;;;-2.30;99.90;;;;;;5026512;28;20255;-76
2022/12/14 01:12:46;;;;;;;63.40;29.10;;;-2.50;99.90;;;;;;5024941;28;20322;-77
2022/12/14 01:15:35;;;;;;;61.67;27.90;;;-2.50;99.90;;;;;;5024023;28;20314;-77
2022/12/14 01:18:24;;;;;;;59.73;28.50;;;-2.40;99.90;;;;;;5025837;28;20236;-76
2022/12/14 01:21:15;;;;;;;65.40;27.70;;;-2.50;99.90;;;;;;5017883;28;20231;-76
2022/12/14 01:24:07;;;;;;;67.47;29.13;;;-2.50;99.90;;;;;;5036888;28;20220;-76
2022/12/14 01:26:56;;;;;;;60.33;28.43;;;-2.70;99.90;;;;;;5034895;28;20228;-76
2022/12/14 01:29:45;;;;;;;65.33;29.57;;;-2.60;99.90;;;;;;5035053;28;20232;-76
2022/12/14 01:32:35;;;;;;;60.50;29.57;;;-2.50;99.90;;;;;;5044792;28;20228;-76
2022/12/14 01:35:25;;;;;;;67.30;29.17;;;-2.50;99.90;;;;;;5019873;28;20232;-76
2022/12/14 01:38:14;;;;;;;66.30;27.93;;;-2.50;99.90;;;;;;5021560;28;20217;-77
2022/12/14 01:41:06;;;;;;;65.87;28.07;;;-2.40;99.90;;;;;;5033849;28;20224;-77
2022/12/14 01:43:56;;;;;;;61.03;27.40;;;-2.40;99.90;;;;;;5023512;28;20224;-78
2022/12/14 01:46:52;;;;;;;57.97;26.83;;;-2.40;99.90;;;;;;5025852;28;20304;-79
2022/12/14 01:49:45;;;;;;;64.30;27.07;;;-2.50;99.90;;;;;;5020366;28;20256;-78
2022/12/14 01:52:38;;;;;;;66.80;28.67;;;-2.40;99.90;;;;;;5018490;28;20303;-79
2022/12/14 01:55:30;;;;;;;65.87;28.67;;;-2.60;99.90;;;;;;5017784;28;20217;-80
2022/12/14 01:58:23;;;;;;;63.03;27.10;;;-2.70;99.90;;;;;;5021448;28;20237;-77
2022/12/14 02:01:12;;;;;;;70.63;27.53;;;-2.80;99.90;;;;;;5025952;28;20244;-79
2022/12/14 02:04:03;;;;;;;70.30;30.17;;;-2.80;99.90;;;;;;5037880;28;20223;-78
2022/12/14 02:06:53;;;;;;;59.37;28.67;;;-2.90;99.90;;;;;;5018628;28;20730;-79
2022/12/14 02:09:49;;;;;;;65.47;28.67;;;-2.90;99.90;;;;;;5029913;28;20244;-78
2022/12/14 02:12:42;;;;;;;61.90;27.17;;;-2.90;99.90;;;;;;5051752;28;20232;-76
2022/12/14 02:15:35;;;;;;;59.47;26.93;;;-2.80;99.90;;;;;;5024323;28;20235;-77
2022/12/14 02:18:27;;;;;;;61.13;26.97;;;-2.90;99.90;;;;;;5033158;28;20782;-77
2022/12/14 02:21:23;;;;;;;58.27;28.17;;;-2.90;99.90;;;;;;5030065;28;20227;-77
2022/12/14 02:24:44;;;;;;;61.63;28.13;;;-2.90;99.90;;;;;;5043616;28;20677;-75
2022/12/14 02:28:08;;;;;;;59.33;27.03;;;-2.90;99.90;;;;;;5055024;28;20303;-76
2022/12/14 02:31:07;;;;;;;61.17;28.27;;;-3.00;99.90;;;;;;5042647;28;20224;-76
2022/12/14 02:34:00;;;;;;;61.40;28.33;;;-3.00;99.90;;;;;;5058926;28;20242;-77
2022/12/14 02:36:57;;;;;;;65.30;28.73;;;-3.00;99.90;;;;;;5040107;28;20236;-77
2022/12/14 02:39:58;;;;;;;61.27;26.23;;;-3.00;99.90;;;;;;5054788;28;20230;-77
2022/12/14 02:42:57;;;;;;;64.63;28.07;;;-3.00;99.90;;;;;;5046844;28;20710;-78
2022/12/14 02:45:54;;;;;;;58.37;27.73;;;-2.90;99.90;;;;;;5056885;28;20223;-77
2022/12/14 02:48:51;;;;;;;59.97;29.73;;;-3.10;99.90;;;;;;5050646;28;20231;-76
2022/12/14 02:51:52;;;;;;;66.67;28.47;;;-3.10;99.90;;;;;;5058532;28;20234;-76
2022/12/14 02:54:48;;;;;;;61.03;28.33;;;-3.00;99.90;;;;;;5044079;28;20713;-76
2022/12/14 02:57:40;;;;;;;66.23;27.87;;;-3.00;99.90;;;;;;5045257;28;20226;-76
2022/12/14 03:00:32;;;;;;;59.93;27.63;;;-3.10;99.90;;;;;;5054838;28;20228;-77
2022/12/14 03:03:21;;;;;;;58.03;26.17;;;-3.10;99.90;;;;;;5056132;28;20221;-77
2022/12/14 03:06:14;;;;;;;61.63;27.50;;;-3.00;99.90;;;;;;5047527;28;20227;-77
2022/12/14 03:09:05;;;;;;;63.10;28.00;;;-3.00;99.90;;;;;;5053574;28;20227;-77
2022/12/14 03:11:58;;;;;;;62.70;27.23;;;-3.00;99.90;;;;;;5038671;28;20234;-78
2022/12/14 03:14:52;;;;;;;61.67;28.47;;;-2.90;99.90;;;;;;5041627;28;20230;-77
2022/12/14 03:17:44;;;;;;;59.93;28.23;;;-2.90;99.90;;;;;;5053513;28;20217;-76
2022/12/14 03:20:38;;;;;;;61.17;28.47;;;-2.90;99.90;;;;;;5037237;28;20232;-75
2022/12/14 03:23:33;;;;;;;61.93;27.70;;;-3.10;99.90;;;;;;5031804;28;20309;-77
2022/12/14 03:26:27;;;;;;;59.37;27.97;;;-3.00;99.90;;;;;;5055910;28;20243;-77
2022/12/14 03:29:20;;;;;;;64.70;27.67;;;-3.10;99.90;;;;;;5040832;28;20243;-77
2022/12/14 03:32:12;;;;;;;63.30;27.77;;;-3.20;99.90;;;;;;5040205;28;20224;-78
2022/12/14 03:35:04;;;;;;;60.97;27.17;;;-3.10;99.90;;;;;;5054327;28;20231;-78
2022/12/14 03:37:57;;;;;;;64.63;28.93;;;-3.10;99.90;;;;;;5055637;28;20224;-78
2022/12/14 03:40:54;;;;;;;64.23;28.40;;;-3.10;99.90;;;;;;5056449;28;20232;-79
2022/12/14 03:43:53;;;;;;;64.13;28.03;;;-3.10;99.90;;;;;;5042508;28;20737;-78
2022/12/14 03:46:52;;;;;;;63.53;28.37;;;-3.10;99.90;;;;;;5042315;28;20602;-77
2022/12/14 03:49:54;;;;;;;61.87;28.77;;;-3.30;99.90;;;;;;5057505;28;20238;-79
2022/12/14 03:52:49;;;;;;;62.53;27.77;;;-3.50;99.90;;;;;;5056754;28;20225;-77
2022/12/14 03:55:44;;;;;;;59.47;27.03;;;-3.40;99.90;;;;;;5059759;28;20263;-78
2022/12/14 03:58:43;;;;;;;58.20;27.90;;;-3.40;99.90;;;;;;5039635;28;20291;-79
2022/12/14 04:01:41;;;;;;;62.03;28.27;;;-3.30;99.90;;;;;;5041056;28;20674;-77
2022/12/14 04:04:34;;;;;;;63.70;28.37;;;-3.30;99.90;;;;;;5055748;28;20217;-77
2022/12/14 04:07:27;;;;;;;63.73;28.70;;;-3.20;99.90;;;;;;5060545;28;20718;-78
2022/12/14 04:19:57;;;;;;;68.47;28.43;;;-3.50;99.90;;;;;;5053864;28;20218;-77
2022/12/14 04:22:52;;;;;;;65.10;29.17;;;-3.60;99.90;;;;;;5054762;28;20269;-78
2022/12/14 04:26:03;;;;;;;71.57;29.20;;;-3.40;99.90;;;;;;5044712;28;20630;-78
2022/12/14 04:32:09;;;;;;;66.80;28.77;;;-3.50;99.90;;;;;;5045459;28;20221;-79
2022/12/14 04:35:02;;;;;;;63.27;28.97;;;-3.60;99.90;;;;;;5042240;28;20222;-79
2022/12/14 04:37:55;;;;;;;64.57;28.40;;;-3.60;99.90;;;;;;5038195;28;20233;-79
2022/12/14 04:40:49;;;;;;;65.97;30.87;;;-3.50;99.90;;;;;;5060375;28;20227;-80
2022/12/14 04:43:42;;;;;;;65.97;30.43;;;-3.50;99.90;;;;;;5056343;28;20915;-79
2022/12/14 04:46:36;;;;;;;64.73;28.93;;;-3.60;99.90;;;;;;5044932;28;20229;-79
2022/12/14 04:49:35;;;;;;;68.30;29.53;;;-3.40;99.90;;;;;;5058684;28;20972;-78
2022/12/14 04:52:30;;;;;;;71.67;29.73;;;-3.40;99.90;;;;;;5042946;28;20770;-79
2022/12/14 04:55:25;;;;;;;72.57;29.97;;;-3.60;99.90;;;;;;5041218;28;20222;-77
2022/12/14 04:58:19;;;;;;;59.77;27.40;;;-3.60;99.90;;;;;;5047420;28;20234;-78
2022/12/14 05:01:23;;;;;;;62.53;28.17;;;-3.70;99.90;;;;;;5055422;28;20222;-77
2022/12/14 05:04:23;;;;;;;67.00;29.87;;;-3.60;99.90;;;;;;5041198;28;20249;-78
2022/12/14 05:07:23;;;;;;;69.10;29.80;;;-3.80;99.90;;;;;;5056094;28;21000;-77
2022/12/14 05:10:18;;;;;;;66.77;28.87;;;-3.90;99.90;;;;;;5039096;28;20212;-77
2022/12/14 05:13:13;;;;;;;66.63;29.23;;;-3.70;99.90;;;;;;5059201;28;20226;-78
2022/12/14 05:16:02;;;;;;;65.63;29.07;;;-3.60;99.90;;;;;;5060141;28;20222;-78
2022/12/14 05:18:51;;;;;;;62.27;27.53;;;-3.60;99.90;;;;;;5058464;28;20235;-77
2022/12/14 05:21:48;;;;;;;62.37;28.13;;;-3.80;99.90;;;;;;5042505;28;20656;-78
2022/12/14 05:24:38;;;;;;;67.67;28.20;;;-3.80;99.90;;;;;;5020182;28;20225;-77
2022/12/14 05:27:27;;;;;;;63.20;26.53;;;-3.80;99.90;;;;;;5034964;28;20222;-78
2022/12/14 05:30:16;;;;;;;63.97;27.17;;;-3.80;99.90;;;;;;5043140;28;20221;-78
2022/12/14 05:33:05;;;;;;;64.23;26.73;;;-3.90;99.90;;;;;;5035265;28;20703;-78
2022/12/14 05:35:53;;;;;;;65.90;28.20;;;-3.90;99.90;;;;;;5036714;28;20226;-79
2022/12/14 05:38:42;;;;;;;60.03;27.90;;;-3.90;99.90;;;;;;5023605;28;20228;-77
2022/12/14 05:41:32;;;;;;;62.33;26.67;;;-3.90;99.90;;;;;;5035078;28;20265;-76
2022/12/14 05:44:21;;;;;;;59.93;28.43;;;-4.00;99.90;;;;;;5036040;28;20223;-77
2022/12/14 05:47:10;;;;;;;61.60;27.03;;;-3.90;99.90;;;;;;5039438;28;20259;-77
2022/12/14 05:49:58;;;;;;;60.37;27.43;;;-4.00;99.90;;;;;;5041434;28;20230;-77
2022/12/14 05:52:47;;;;;;;55.23;26.63;;;-4.00;99.90;;;;;;5034937;28;20224;-76
2022/12/14 05:55:36;;;;;;;65.27;28.77;;;-3.90;99.90;;;;;;5015472;28;20237;-77
2022/12/14 05:58:26;;;;;;;73.23;32.07;;;-4.10;99.90;;;;;;5034489;28;20229;-77
2022/12/14 06:01:14;;;;;;;82.13;33.50;;;-4.30;99.90;;;;;;5031098;28;20221;-77
2022/12/14 06:04:07;;;;;;;83.23;34.07;;;-4.40;99.90;;;;;;5026226;28;20224;-79
2022/12/14 06:06:55;;;;;;;79.87;34.87;;;-4.50;99.90;;;;;;5036144;28;20213;-79
2022/12/14 06:09:44;;;;;;;85.17;35.50;;;-4.50;99.90;;;;;;5039187;28;20234;-80
2022/12/14 06:12:33;;;;;;;103.47;39.47;;;-4.60;99.90;;;;;;5030663;28;20233;-81
2022/12/14 06:15:23;;;;;;;96.53;37.70;;;-4.70;99.90;;;;;;5039990;28;20217;-81
2022/12/14 06:18:18;;;;;;;99.07;39.07;;;-4.90;99.90;;;;;;5041211;28;20873;-79
2022/12/14 06:21:07;;;;;;;94.37;38.40;;;-4.90;99.90;;;;;;5040535;28;20255;-80
2022/12/14 06:23:57;;;;;;;95.80;39.03;;;-4.80;99.90;;;;;;5023559;28;20225;-80
2022/12/14 06:26:45;;;;;;;99.77;40.10;;;-4.90;99.90;;;;;;5021209;28;20236;-81
2022/12/14 06:29:34;;;;;;;94.40;39.23;;;-4.90;99.90;;;;;;5038924;28;20231;-79
2022/12/14 06:32:24;;;;;;;93.17;36.60;;;-5.00;99.90;;;;;;5014320;28;20229;-80
2022/12/14 06:35:13;;;;;;;76.33;34.33;;;-5.10;99.90;;;;;;5032198;28;20218;-80
2022/12/14 06:38:02;;;;;;;75.93;33.57;;;-5.00;99.90;;;;;;5037850;28;20217;-80
2022/12/14 06:40:50;;;;;;;81.27;33.80;;;-5.10;99.90;;;;;;5035594;28;20225;-78
2022/12/14 06:43:39;;;;;;;70.47;30.27;;;-5.20;99.90;;;;;;5034688;28;20243;-79
2022/12/14 06:46:28;;;;;;;72.67;31.43;;;-5.30;99.90;;;;;;5018939;28;20232;-78
2022/12/14 06:49:18;;;;;;;74.50;30.53;;;-5.60;99.90;;;;;;5038654;28;20356;-79
2022/12/14 06:52:07;;;;;;;72.03;31.10;;;-5.30;99.90;;;;;;5031860;28;20224;-76
2022/12/14 06:54:55;;;;;;;73.60;31.13;;;-5.20;99.90;;;;;;5018530;28;20251;-76
2022/12/14 06:57:44;;;;;;;70.67;31.07;;;-5.30;99.90;;;;;;5035738;28;20255;-75
2022/12/14 07:00:33;;;;;;;72.13;30.80;;;-5.50;99.90;;;;;;5015127;28;20232;-77
2022/12/14 07:03:22;;;;;;;72.93;29.57;;;-5.40;99.90;;;;;;5032006;28;20268;-77
2022/12/14 07:06:12;;;;;;;67.83;29.73;;;-5.30;99.90;;;;;;5034423;28;20934;-77
2022/12/14 07:09:01;;;;;;;74.87;30.67;;;-5.30;99.90;;;;;;5028485;28;20228;-77
2022/12/14 07:11:51;;;;;;;66.37;30.30;;;-5.40;99.90;;;;;;5020411;28;20221;-78
2022/12/14 07:14:40;;;;;;;71.63;31.47;;;-5.60;99.90;;;;;;5017229;28;20715;-78
2022/12/14 07:17:29;;;;;;;75.30;31.37;;;-5.50;99.90;;;;;;5015556;28;20723;-78
2022/12/14 07:20:17;;;;;;;76.53;30.37;;;-5.60;99.90;;;;;;5019735;28;20218;-77
2022/12/14 07:23:11;;;;;;;80.17;32.70;;;-5.60;99.90;;;;;;5038133;28;20228;-77
2022/12/14 07:26:03;;;;;;;81.73;32.63;;;-5.70;99.90;;;;;;5036257;28;20514;-80
2022/12/14 07:28:53;;;;;;;81.40;33.60;;;-5.90;99.90;;;;;;5058745;28;20302;-79
2022/12/14 07:31:42;;;;;;;77.50;32.40;;;-5.80;99.90;;;;;;5058341;28;20238;-79
2022/12/14 07:34:30;;;;;;;78.93;31.07;;;-5.80;99.90;;;;;;5058253;28;20228;-80
2022/12/14 07:37:19;;;;;;;80.17;31.67;;;-5.80;99.90;;;;;;5042785;28;20225;-78
2022/12/14 07:40:11;;;;;;;78.77;30.03;;;-5.80;99.90;;;;;;5043185;28;20220;-81
2022/12/14 07:43:00;;;;;;;75.67;31.23;;;-5.70;99.90;;;;;;5059551;28;20230;-80
2022/12/14 07:45:49;;;;;;;71.87;30.97;;;-5.80;99.90;;;;;;5058230;28;20293;-79
2022/12/14 07:48:38;;;;;;;88.23;32.13;;;-5.60;99.90;;;;;;5041988;28;20283;-80
2022/12/14 07:51:28;;;;;;;81.33;30.93;;;-5.90;99.90;;;;;;5044956;28;20281;-80
2022/12/14 07:54:17;;;;;;;76.97;31.00;;;-5.40;99.90;;;;;;5041644;28;20228;-79
2022/12/14 07:57:07;;;;;;;76.97;31.17;;;-5.50;99.90;;;;;;5061500;28;20906;-79
2022/12/14 07:59:56;;;;;;;77.80;31.43;;;-5.60;99.90;;;;;;5038800;28;20715;-79
2022/12/14 08:02:45;;;;;;;75.93;31.10;;;-5.40;99.90;;;;;;5059676;28;20224;-78
2022/12/14 08:05:34;;;;;;;79.53;31.07;;;-5.30;99.90;;;;;;5043750;28;20221;-80
2022/12/14 08:08:22;;;;;;;77.60;30.97;;;-5.50;99.90;;;;;;5045846;28;20232;-80
2022/12/14 08:11:12;;;;;;;80.80;32.87;;;-5.30;99.90;;;;;;5048173;28;20238;-79
2022/12/14 08:14:04;;;;;;;83.93;32.50;;;-5.20;99.90;;;;;;5063875;28;20322;-79
2022/12/14 08:16:53;;;;;;;84.27;31.50;;;-5.20;99.90;;;;;;5041424;28;20222;-80
2022/12/14 08:19:42;;;;;;;92.33;33.83;;;-5.30;99.90;;;;;;5059137;28;20230;-79
2022/12/14 08:22:31;;;;;;;84.43;32.60;;;-4.90;99.90;;;;;;5044840;28;20227;-80
2022/12/14 08:25:19;;;;;;;87.10;33.23;;;-5.00;99.90;;;;;;5056982;28;20224;-78
2022/12/14 08:28:08;;;;;;;81.87;32.17;;;-4.90;99.90;;;;;;5045369;28;20220;-80
2022/12/14 08:31:04;;;;;;;89.57;31.80;;;-4.90;99.90;;;;;;5039001;28;20235;-83
2022/12/14 08:33:53;;;;;;;88.30;31.63;;;-4.90;99.90;;;;;;5043643;28;20220;-82
2022/12/14 08:36:41;;;;;;;84.73;33.17;;;-4.70;99.90;;;;;;5038972;28;20318;-79
2022/12/14 08:39:30;;;;;;;84.03;32.50;;;-4.70;99.90;;;;;;5039762;28;20228;-80
2022/12/14 08:42:19;;;;;;;75.83;31.77;;;-4.80;99.90;;;;;;5050697;28;20223;-81
2022/12/14 08:45:08;;;;;;;87.90;32.77;;;-4.50;99.90;;;;;;5038622;28;20285;-78
2022/12/14 08:48:00;;;;;;;77.60;31.90;;;-4.70;99.90;;;;;;5038988;28;20224;-77
2022/12/14 08:50:49;;;;;;;77.53;32.83;;;-4.70;99.90;;;;;;5040490;28;20220;-78
2022/12/14 08:53:38;;;;;;;76.87;31.43;;;-4.50;99.90;;;;;;5038403;28;20262;-78
2022/12/14 08:56:28;;;;;;;81.33;31.33;;;-4.80;99.90;;;;;;5044994;28;20690;-81
2022/12/14 08:59:17;;;;;;;77.63;32.57;;;-4.70;99.90;;;;;;5053130;28;20216;-78
2022/12/14 09:02:26;;;;;;;89.77;33.57;;;-4.60;99.90;;;;;;5053284;28;20230;-81
2022/12/14 09:05:17;;;;;;;71.90;30.97;;;-4.50;99.90;;;;;;5055166;28;20250;-80
2022/12/14 09:08:05;;;;;;;79.73;31.77;;;-4.70;99.90;;;;;;5052221;28;20216;-80
2022/12/14 09:10:54;;;;;;;78.00;30.57;;;-4.50;99.90;;;;;;5039433;28;20224;-81
2022/12/14 09:13:43;;;;;;;83.67;31.80;;;-4.30;99.90;;;;;;5040801;28;20278;-83
2022/12/14 09:16:32;;;;;;;84.13;32.00;;;-4.40;99.90;;;;;;5040033;28;20224;-82
2022/12/14 09:19:21;;;;;;;82.63;33.03;;;-4.20;99.90;;;;;;5056126;28;20343;-85
2022/12/14 09:22:12;;;;;;;76.47;32.73;;;-4.30;99.90;;;;;;5010811;28;1124837;-86
2022/12/14 09:25:01;;;;;;;83.20;33.93;;;-4.00;99.90;;;;;;5052031;28;20215;-86
2022/12/14 09:27:50;;;;;;;83.43;32.93;;;-3.80;99.90;;;;;;5053179;28;20744;-88
2022/12/14 09:30:39;;;;;;;72.47;31.93;;;-4.40;99.90;;;;;;5054498;28;20345;-87
2022/12/14 09:33:29;;;;;;;81.27;32.53;;;-4.40;99.90;;;;;;5043499;28;20224;-84
2022/12/14 09:36:20;;;;;;;80.93;32.70;;;-4.30;99.90;;;;;;5065368;28;20224;-86
2022/12/14 09:39:13;;;;;;;77.13;33.10;;;-4.20;99.90;;;;;;5051177;28;20774;-86
2022/12/14 09:42:12;;;;;;;77.20;31.27;;;-4.40;99.90;;;;;;5065578;28;20243;-84
2022/12/14 09:45:06;;;;;;;79.87;32.20;;;-4.40;99.90;;;;;;5051168;28;20216;-80
2022/12/14 09:48:00;;;;;;;70.43;31.10;;;-3.90;99.90;;;;;;5041029;28;20237;-80
2022/12/14 09:50:51;;;;;;;81.33;32.03;;;-4.00;99.90;;;;;;5039171;28;20308;-82
2022/12/14 09:53:42;;;;;;;83.37;33.23;;;-4.00;99.90;;;;;;5059477;28;20584;-82
2022/12/14 09:56:33;;;;;;;77.60;32.33;;;-3.90;99.90;;;;;;5042358;28;20232;-81
2022/12/14 09:59:29;;;;;;;80.77;34.63;;;-3.80;99.90;;;;;;5060311;28;21027;-81
2022/12/14 10:02:35;;;;;;;76.57;32.87;;;-3.80;99.90;;;;;;5053865;28;20329;-80
2022/12/14 10:05:48;;;;;;;77.37;34.27;;;-3.80;99.90;;;;;;5042546;28;20225;-82
2022/12/14 10:08:43;;;;;;;83.30;35.93;;;-3.60;99.90;;;;;;5057808;28;20232;-81
2022/12/14 10:11:52;;;;;;;88.60;34.63;;;-3.50;99.90;;;;;;5077517;28;20220;-82
2022/12/14 10:14:56;;;;;;;78.00;33.27;;;-3.60;99.90;;;;;;5060104;28;20223;-81
2022/12/14 10:18:09;;;;;;;95.40;35.70;;;-3.20;99.90;;;;;;5062325;28;20227;-84
2022/12/14 10:21:21;;;;;;;84.30;34.43;;;-3.20;99.90;;;;;;5059766;28;20267;-82
2022/12/14 10:24:17;;;;;;;84.57;36.23;;;-3.30;99.90;;;;;;5044251;28;20218;-83
2022/12/14 10:27:10;;;;;;;86.77;37.13;;;-3.00;99.90;;;;;;5038067;28;20809;-83
2022/12/14 10:30:02;;;;;;;86.50;36.27;;;-3.10;99.90;;;;;;5055462;28;20225;-82
2022/12/14 10:32:53;;;;;;;81.10;34.27;;;-3.10;99.90;;;;;;5041295;28;20229;-82
2022/12/14 10:35:50;;;;;;;81.37;33.80;;;-3.10;99.90;;;;;;5039479;28;20242;-83
2022/12/14 10:38:44;;;;;;;81.37;34.53;;;-3.00;99.90;;;;;;5036114;28;20232;-85
2022/12/14 10:41:43;;;;;;;76.33;35.57;;;-3.10;99.90;;;;;;5041818;28;20245;-81
2022/12/14 10:44:45;;;;;;;80.90;35.53;;;-3.30;99.90;;;;;;5056583;28;20214;-81
2022/12/14 10:47:45;;;;;;;86.70;35.80;;;-3.00;99.90;;;;;;5044197;28;20231;-81
2022/12/14 10:50:44;;;;;;;81.60;35.17;;;-3.20;99.90;;;;;;5057436;28;20660;-81
2022/12/14 10:53:43;;;;;;;87.63;35.50;;;-3.20;99.90;;;;;;5040600;28;20237;-82
2022/12/14 10:56:34;;;;;;;78.23;35.03;;;-3.20;99.90;;;;;;5036108;28;20225;-82
2022/12/14 10:59:33;;;;;;;79.70;34.97;;;-3.00;99.90;;;;;;5047360;28;20427;-82
2022/12/14 11:02:37;;;;;;;77.00;34.83;;;-3.00;99.90;;;;;;5058276;28;20297;-85
2022/12/14 11:05:33;;;;;;;79.67;34.13;;;-3.20;99.90;;;;;;5044282;28;20217;-83
2022/12/14 11:08:39;;;;;;;77.63;33.73;;;-3.20;99.90;;;;;;5036503;28;20271;-83
2022/12/14 11:11:28;;;;;;;89.73;36.37;;;-3.10;99.90;;;;;;5048718;28;20232;-83
2022/12/14 11:14:21;;;;;;;81.43;34.80;;;-2.80;99.90;;;;;;5035597;28;20689;-84
2022/12/14 11:17:30;;;;;;;75.43;34.10;;;-2.90;99.90;;;;;;5037798;28;20226;-82
2022/12/14 11:20:22;;;;;;;74.73;33.10;;;-2.90;99.90;;;;;;5029415;28;20225;-82
2022/12/14 11:23:19;;;;;;;74.90;32.70;;;-2.90;99.90;;;;;;5055105;28;20231;-83
2022/12/14 11:26:12;;;;;;;79.10;32.90;;;-2.90;99.90;;;;;;5060385;28;20218;-84
2022/12/14 11:29:03;;;;;;;75.83;34.03;;;-2.70;99.90;;;;;;5034970;28;20223;-82
2022/12/14 11:31:52;;;;;;;76.73;33.90;;;-2.50;99.90;;;;;;5056650;28;20232;-82
2022/12/14 11:34:42;;;;;;;75.50;33.40;;;-2.80;99.90;;;;;;5051750;28;20281;-83
2022/12/14 11:37:32;;;;;;;75.53;31.90;;;-2.80;99.90;;;;;;5040030;28;20253;-82
2022/12/14 11:40:24;;;;;;;68.47;31.67;;;-2.80;99.90;;;;;;5041072;28;20232;-80
2022/12/14 11:43:25;;;;;;;66.60;31.27;;;-2.60;99.90;;;;;;5058020;28;20221;-79
2022/12/14 11:46:13;;;;;;;65.27;30.07;;;-2.70;99.90;;;;;;5041674;28;20261;-77
2022/12/14 11:49:02;;;;;;;71.33;30.50;;;-2.60;99.90;;;;;;5037419;28;20225;-78
2022/12/14 11:52:06;;;;;;;69.90;31.63;;;-2.60;99.90;;;;;;5050473;28;20223;-79
2022/12/14 11:55:12;;;;;;;72.30;31.80;;;-2.50;99.90;;;;;;5039459;28;20225;-78
2022/12/14 11:58:01;;;;;;;72.77;31.37;;;-2.60;99.90;;;;;;5037523;28;20240;-77
2022/12/14 12:00:57;;;;;;;62.30;29.63;;;-2.70;99.90;;;;;;5040632;28;20229;-78
2022/12/14 12:03:49;;;;;;;58.37;29.03;;;-2.50;99.90;;;;;;5056963;28;20614;-81
2022/12/14 12:06:39;;;;;;;68.28;41.38;;;-2.60;99.90;;;;;;5038852;28;20434;-79
2022/12/14 12:09:33;;;;;;;67.27;33.93;;;-2.50;99.90;;;;;;5047098;28;20232;-78
2022/12/14 12:12:23;;;;;;;63.20;32.30;;;-2.60;99.90;;;;;;5064029;28;20253;-84
2022/12/14 12:15:17;;;;;;;63.37;30.70;;;-2.60;99.90;;;;;;5059684;28;20223;-79
2022/12/14 12:18:13;;;;;;;64.27;30.67;;;-2.50;99.90;;;;;;5045374;28;20220;-80
2022/12/14 12:21:08;;;;;;;66.13;29.83;;;-2.60;99.90;;;;;;5055309;28;20239;-81
2022/12/14 12:24:01;;;;;;;66.67;30.40;;;-2.50;99.90;;;;;;5045995;28;20226;-83
2022/12/14 12:26:53;;;;;;;68.20;29.97;;;-2.40;99.90;;;;;;5053350;28;20233;-81
2022/12/14 12:29:49;;;;;;;61.10;28.70;;;-2.40;99.90;;;;;;5058525;28;20221;-82
2022/12/14 12:32:43;;;;;;;59.27;28.40;;;-2.50;99.90;;;;;;5042612;28;21066;-84
2022/12/14 12:35:43;;;;;;;59.97;28.27;;;-2.40;99.90;;;;;;5058126;28;20814;-79
2022/12/14 12:38:57;;;;;;;60.33;29.10;;;-2.40;99.90;;;;;;5047422;28;20223;-81
2022/12/14 12:41:52;;;;;;;60.43;28.40;;;-2.40;99.90;;;;;;5059577;28;20225;-88
2022/12/14 12:44:50;;;;;;;60.40;29.03;;;-2.30;99.90;;;;;;5058095;28;20215;-86
2022/12/14 12:47:44;;;;;;;62.73;28.83;;;-2.00;99.90;;;;;;5066274;28;20222;-84
2022/12/14 12:50:40;;;;;;;60.27;27.87;;;-2.10;99.90;;;;;;5063595;28;20319;-89
2022/12/14 12:53:34;;;;;;;57.13;28.53;;;-2.20;99.90;;;;;;5058370;28;20309;-79
2022/12/14 12:56:28;;;;;;;63.87;29.93;;;-1.90;99.90;;;;;;5056644;28;20323;-80
2022/12/14 12:59:20;;;;;;;62.63;28.60;;;-2.00;99.90;;;;;;5043456;28;20355;-84
2022/12/14 13:02:21;;;;;;;65.50;28.93;;;-1.90;99.90;;;;;;5055134;28;20226;-80
2022/12/14 13:05:14;;;;;;;55.33;28.67;;;-2.00;99.90;;;;;;5038695;28;20351;-81
2022/12/14 13:08:30;;;;;;;55.30;27.70;;;-2.00;99.90;;;;;;5049338;28;20590;-82
2022/12/14 13:11:23;;;;;;;54.93;27.57;;;-2.20;99.90;;;;;;5057905;28;20252;-84
2022/12/14 13:14:24;;;;;;;56.80;25.60;;;-2.00;99.90;;;;;;5051916;28;20238;-86
2022/12/14 13:17:27;;;;;;;52.90;24.13;;;-2.10;99.90;;;;;;5056344;28;20253;-92
2022/12/14 13:20:20;;;;;;;47.97;22.80;;;-2.20;99.90;;;;;;5051926;28;20220;-85
2022/12/14 13:23:11;;;;;;;47.93;23.07;;;-2.20;99.90;;;;;;5044287;28;20233;-80
2022/12/14 13:26:39;;;;;;;47.60;22.40;;;-2.20;99.90;;;;;;5058665;28;20303;-79
2022/12/14 13:30:04;;;;;;;41.57;20.60;;;-2.30;99.90;;;;;;5041999;28;20332;-76
2022/12/14 13:33:08;;;;;;;42.17;19.90;;;-2.30;99.90;;;;;;5060289;28;20232;-82
2022/12/14 13:36:27;;;;;;;43.50;21.43;;;-2.20;99.90;;;;;;5039743;28;20648;-83
2022/12/14 13:39:35;;;;;;;47.87;20.87;;;-2.30;99.90;;;;;;5049729;28;20223;-83
2022/12/14 13:42:30;;;;;;;45.23;21.03;;;-2.20;99.90;;;;;;5049658;28;20392;-83
2022/12/14 13:45:21;;;;;;;45.23;20.37;;;-2.20;99.90;;;;;;5068449;28;20269;-84
2022/12/14 13:48:22;;;;;;;44.73;20.70;;;-2.20;99.90;;;;;;5050677;28;20219;-82
2022/12/14 13:51:24;;;;;;;41.83;20.90;;;-2.20;99.90;;;;;;5066499;28;20737;-85
2022/12/14 13:54:20;;;;;;;43.57;21.47;;;-2.50;99.90;;;;;;5069755;28;20226;-88
2022/12/14 13:57:13;;;;;;;42.63;21.07;;;-2.20;99.90;;;;;;5047289;28;20218;-85
2022/12/14 14:00:08;;;;;;;45.60;22.83;;;-2.20;99.90;;;;;;5058354;28;20234;-82
2022/12/14 14:02:59;;;;;;;46.73;22.10;;;-2.40;99.90;;;;;;5057733;28;20219;-86
2022/12/14 14:05:56;;;;;;;46.07;23.13;;;-2.30;99.90;;;;;;5064598;28;20221;-88
2022/12/14 14:08:47;;;;;;;50.37;22.60;;;-2.30;99.90;;;;;;5050180;28;20231;-86
2022/12/14 14:11:57;;;;;;;48.70;22.93;;;-2.30;99.90;;;;;;5068412;28;20226;-81
2022/12/14 14:14:51;;;;;;;52.97;23.97;;;-2.40;99.90;;;;;;5046560;28;20222;-85
2022/12/14 14:17:42;;;;;;;48.20;22.87;;;-2.40;99.90;;;;;;5039865;28;20968;-83
2022/12/14 14:20:38;;;;;;;54.40;24.77;;;-2.40;99.90;;;;;;5044620;28;20602;-81
2022/12/14 14:23:31;;;;;;;53.67;24.30;;;-2.50;99.90;;;;;;5057030;28;20217;-80
2022/12/14 14:26:28;;;;;;;51.17;24.27;;;-2.50;99.90;;;;;;5049480;28;20226;-82
2022/12/14 14:29:22;;;;;;;51.57;23.77;;;-2.50;99.90;;;;;;5058497;28;20223;-81
2022/12/14 14:32:32;;;;;;;54.07;23.97;;;-2.60;99.90;;;;;;5054528;28;20223;-79
2022/12/14 14:35:25;;;;;;;54.50;24.47;;;-2.60;99.90;;;;;;5057309;28;20225;-78
2022/12/14 14:38:25;;;;;;;54.67;24.60;;;-2.60;99.90;;;;;;5041125;28;20231;-77
2022/12/14 14:41:23;;;;;;;53.77;25.10;;;-2.50;99.90;;;;;;5053262;28;20261;-77
2022/12/14 14:44:22;;;;;;;50.23;23.83;;;-2.60;99.90;;;;;;5051762;28;20795;-78
2022/12/14 14:47:19;;;;;;;56.27;25.50;;;-2.50;99.90;;;;;;5038080;28;20240;-80
2022/12/14 14:50:21;;;;;;;57.90;26.33;;;-2.50;99.90;;;;;;5057751;28;20288;-79
2022/12/14 14:53:27;;;;;;;61.67;24.37;;;-2.50;99.90;;;;;;5053019;28;20224;-79